createdAt,value
2023-02-28T00:00:02.631Z,-1.30
2023-02-28T00:01:03.585Z,-1.30
2023-02-28T00:02:02.667Z,-1.30
2023-02-28T00:03:02.665Z,-1.30
2023-02-28T00:04:03.593Z,-1.30
2023-02-28T00:05:03.578Z,-1.30
2023-02-28T00:06:03.579Z,-1.30
2023-02-28T00:07:03.498Z,-1.30
2023-02-28T00:08:03.453Z,-1.30
2023-02-28T00:09:03.461Z,-1.30
2023-02-28T00:10:03.393Z,-1.30
2023-02-28T00:11:03.562Z,-1.30
2023-02-28T00:12:03.467Z,-1.30
2023-02-28T00:13:03.549Z,-1.30
2023-02-28T00:14:03.530Z,-1.30
2023-02-28T00:15:03.551Z,-1.30
2023-02-28T00:16:03.576Z,-1.30
2023-02-28T00:17:03.506Z,-1.30
2023-02-28T00:18:03.503Z,-1.30
2023-02-28T00:19:03.534Z,-1.30
2023-02-28T00:20:03.540Z,-1.30
2023-02-28T00:21:03.534Z,-1.30
2023-02-28T00:22:03.550Z,-1.30
2023-02-28T00:23:03.593Z,-1.30
2023-02-28T00:24:03.590Z,-1.30
2023-02-28T00:25:03.606Z,-1.30
2023-02-28T00:26:03.614Z,-1.30
2023-02-28T00:27:03.537Z,-1.30
2023-02-28T00:28:03.592Z,-1.30
2023-02-28T00:29:03.577Z,-1.30
2023-02-28T00:30:03.551Z,-1.30
2023-02-28T00:31:03.576Z,-1.30
2023-02-28T00:32:03.545Z,-1.30
2023-02-28T00:33:03.652Z,-1.30
2023-02-28T00:34:03.560Z,-1.30
2023-02-28T00:35:03.538Z,-1.30
2023-02-28T00:36:03.565Z,-1.30
2023-02-28T00:37:03.447Z,-1.30
2023-02-28T00:38:03.521Z,-1.30
2023-02-28T00:39:03.440Z,-1.30
2023-02-28T00:40:03.489Z,-1.30
2023-02-28T00:41:03.483Z,-1.30
2023-02-28T00:42:03.356Z,-1.30
2023-02-28T00:43:03.465Z,-1.30
2023-02-28T00:44:03.438Z,-1.30
2023-02-28T00:45:03.495Z,-1.30
2023-02-28T00:46:03.429Z,-1.30
2023-02-28T00:47:03.431Z,-1.30
2023-02-28T00:48:03.364Z,-1.30
2023-02-28T00:49:03.427Z,-1.30
2023-02-28T00:50:03.360Z,-1.30
2023-02-28T00:51:03.341Z,-1.30
2023-02-28T00:52:03.465Z,-1.30
2023-02-28T00:53:03.497Z,-1.30
2023-02-28T00:54:03.544Z,-1.30
2023-02-28T00:55:03.571Z,-1.30
2023-02-28T00:56:02.680Z,-1.30
2023-02-28T00:57:02.675Z,-1.30
2023-02-28T00:58:02.710Z,-1.30
2023-02-28T00:59:02.698Z,-1.30
2023-02-28T01:00:02.678Z,-1.30
2023-02-28T01:01:02.780Z,-1.30
2023-02-28T01:02:02.729Z,-1.30
2023-02-28T01:03:02.721Z,-1.30
2023-02-28T01:04:02.684Z,-1.30
2023-02-28T01:05:02.675Z,-1.30
2023-02-28T01:06:02.691Z,-1.30
2023-02-28T01:07:02.648Z,-1.30
2023-02-28T01:08:02.712Z,-1.30
2023-02-28T01:09:02.809Z,-1.30
2023-02-28T01:10:03.273Z,-1.30
2023-02-28T01:11:03.187Z,-1.40
2023-02-28T01:12:03.274Z,-1.40
2023-02-28T01:13:03.247Z,-1.40
2023-02-28T01:14:03.149Z,-1.40
2023-02-28T01:15:03.243Z,-1.40
2023-02-28T01:16:03.216Z,-1.40
2023-02-28T01:17:03.259Z,-1.40
2023-02-28T01:18:03.241Z,-1.40
2023-02-28T01:19:03.325Z,-1.40
2023-02-28T01:20:03.433Z,-1.40
2023-02-28T01:21:03.358Z,-1.40
2023-02-28T01:22:03.339Z,-1.40
2023-02-28T01:23:03.391Z,-1.40
2023-02-28T01:24:03.402Z,-1.40
2023-02-28T01:25:03.418Z,-1.40
2023-02-28T01:26:03.311Z,-1.50
2023-02-28T01:27:03.286Z,-1.40
2023-02-28T01:28:03.416Z,-1.40
2023-02-28T01:29:03.346Z,-1.40
2023-02-28T01:30:03.357Z,-1.40
2023-02-28T01:31:03.388Z,-1.40
2023-02-28T01:32:03.380Z,-1.40
2023-02-28T01:33:03.297Z,-1.40
2023-02-28T01:34:03.316Z,-1.40
2023-02-28T01:35:03.355Z,-1.40
2023-02-28T01:36:03.369Z,-1.50
2023-02-28T01:37:03.232Z,-1.50
2023-02-28T01:38:15.906Z,-1.50
2023-02-28T01:39:03.240Z,-1.50
2023-02-28T01:40:03.258Z,-1.50
2023-02-28T01:41:03.318Z,-1.50
2023-02-28T01:42:03.395Z,-1.50
2023-02-28T01:43:03.522Z,-1.50
2023-02-28T01:44:03.515Z,-1.50
2023-02-28T01:45:03.462Z,-1.50
2023-02-28T01:46:03.651Z,-1.50
2023-02-28T01:47:02.628Z,-1.50
2023-02-28T01:48:02.715Z,-1.50
2023-02-28T01:49:02.719Z,-1.60
2023-02-28T01:50:02.812Z,-1.60
2023-02-28T01:51:02.933Z,-1.60
2023-02-28T01:52:02.918Z,-1.60
2023-02-28T01:53:02.869Z,-1.50
2023-02-28T01:54:02.941Z,-1.60
2023-02-28T01:55:03.196Z,-1.60
2023-02-28T01:56:03.179Z,-1.60
2023-02-28T01:57:03.252Z,-1.60
2023-02-28T01:58:03.265Z,-1.60
2023-02-28T01:59:03.586Z,-1.60
2023-02-28T02:00:03.470Z,-1.60
2023-02-28T02:01:03.542Z,-1.60
2023-02-28T02:02:03.543Z,-1.60
2023-02-28T02:03:03.651Z,-1.60
2023-02-28T02:04:03.642Z,-1.60
2023-02-28T02:05:02.717Z,-1.60
2023-02-28T02:06:02.656Z,-1.60
2023-02-28T02:07:02.636Z,-1.60
2023-02-28T02:08:02.712Z,-1.60
2023-02-28T02:09:02.669Z,-1.60
2023-02-28T02:10:02.750Z,-1.60
2023-02-28T02:11:02.702Z,-1.60
2023-02-28T02:12:02.751Z,-1.60
2023-02-28T02:13:02.777Z,-1.60
2023-02-28T02:14:02.797Z,-1.60
2023-02-28T02:15:02.740Z,-1.60
2023-02-28T02:16:02.866Z,-1.60
2023-02-28T02:17:02.992Z,-1.60
2023-02-28T02:18:02.971Z,-1.60
2023-02-28T02:19:02.987Z,-1.60
2023-02-28T02:20:03.054Z,-1.60
2023-02-28T02:21:03.015Z,-1.60
2023-02-28T02:22:03.131Z,-1.60
2023-02-28T02:23:03.030Z,-1.60
2023-02-28T02:24:02.997Z,-1.60
2023-02-28T02:25:03.013Z,-1.60
2023-02-28T02:26:03.071Z,-1.60
2023-02-28T02:27:03.158Z,-1.70
2023-02-28T02:28:03.116Z,-1.60
2023-02-28T02:29:03.071Z,-1.70
2023-02-28T02:30:03.163Z,-1.70
2023-02-28T02:31:03.191Z,-1.60
2023-02-28T02:32:03.197Z,-1.60
2023-02-28T02:33:03.098Z,-1.60
2023-02-28T02:34:03.176Z,-1.60
2023-02-28T02:35:03.146Z,-1.70
2023-02-28T02:36:03.132Z,-1.70
2023-02-28T02:37:03.152Z,-1.70
2023-02-28T02:38:03.192Z,-1.70
2023-02-28T02:39:03.053Z,-1.70
2023-02-28T02:40:03.051Z,-1.70
2023-02-28T02:41:03.134Z,-1.70
2023-02-28T02:42:03.072Z,-1.70
2023-02-28T02:43:03.110Z,-1.70
2023-02-28T02:44:03.088Z,-1.70
2023-02-28T02:45:03.163Z,-1.70
2023-02-28T02:46:03.121Z,-1.70
2023-02-28T02:47:03.227Z,-1.70
2023-02-28T02:48:03.209Z,-1.70
2023-02-28T02:49:03.168Z,-1.70
2023-02-28T02:50:03.087Z,-1.70
2023-02-28T02:51:03.055Z,-1.70
2023-02-28T02:52:03.073Z,-1.60
2023-02-28T02:53:03.033Z,-1.60
2023-02-28T02:54:03.173Z,-1.70
2023-02-28T02:55:03.159Z,-1.70
2023-02-28T02:56:03.100Z,-1.70
2023-02-28T02:57:03.101Z,-1.70
2023-02-28T02:58:03.049Z,-1.70
2023-02-28T02:59:03.011Z,-1.70
2023-02-28T03:00:03.043Z,-1.70
2023-02-28T03:01:03.102Z,-1.70
2023-02-28T03:02:03.125Z,-1.70
2023-02-28T03:03:03.106Z,-1.60
2023-02-28T03:04:03.201Z,-1.70
2023-02-28T03:05:03.068Z,-1.70
2023-02-28T03:06:03.153Z,-1.70
2023-02-28T03:07:03.129Z,-1.70
2023-02-28T03:08:03.216Z,-1.70
2023-02-28T03:09:03.259Z,-1.70
2023-02-28T03:10:03.191Z,-1.70
2023-02-28T03:11:03.136Z,-1.70
2023-02-28T03:12:03.168Z,-1.70
2023-02-28T03:13:03.175Z,-1.70
2023-02-28T03:14:03.237Z,-1.70
2023-02-28T03:15:03.300Z,-1.70
2023-02-28T03:16:03.392Z,-1.70
2023-02-28T03:17:03.272Z,-1.70
2023-02-28T03:18:03.334Z,-1.70
2023-02-28T03:19:03.347Z,-1.70
2023-02-28T03:20:03.262Z,-1.70
2023-02-28T03:21:03.334Z,-1.70
2023-02-28T03:22:03.411Z,-1.70
2023-02-28T03:23:03.530Z,-1.70
2023-02-28T03:24:03.607Z,-1.70
2023-02-28T03:25:03.580Z,-1.70
2023-02-28T03:26:03.581Z,-1.70
2023-02-28T03:27:02.621Z,-1.70
2023-02-28T03:28:03.055Z,-1.70
2023-02-28T03:29:03.447Z,-1.70
2023-02-28T03:30:03.472Z,-1.70
2023-02-28T03:31:03.375Z,-1.70
2023-02-28T03:32:03.458Z,-1.70
2023-02-28T03:33:03.394Z,-1.70
2023-02-28T03:34:03.367Z,-1.70
2023-02-28T03:35:03.420Z,-1.70
2023-02-28T03:36:03.454Z,-1.70
2023-02-28T03:37:03.470Z,-1.70
2023-02-28T03:38:03.566Z,-1.70
2023-02-28T03:39:03.510Z,-1.70
2023-02-28T03:40:03.498Z,-1.70
2023-02-28T03:41:03.556Z,-1.70
2023-02-28T03:42:03.608Z,-1.70
2023-02-28T03:43:02.630Z,-1.70
2023-02-28T03:44:02.663Z,-1.70
2023-02-28T03:45:02.734Z,-1.70
2023-02-28T03:46:02.757Z,-1.70
2023-02-28T03:47:03.633Z,-1.60
2023-02-28T03:48:02.674Z,-1.60
2023-02-28T03:49:03.621Z,-1.70
2023-02-28T03:50:03.584Z,-1.70
2023-02-28T03:51:03.609Z,-1.70
2023-02-28T03:52:03.609Z,-1.60
2023-02-28T03:53:03.650Z,-1.60
2023-02-28T03:54:03.628Z,-1.70
2023-02-28T03:55:03.595Z,-1.70
2023-02-28T03:56:03.513Z,-1.70
2023-02-28T03:57:03.587Z,-1.60
2023-02-28T03:58:03.511Z,-1.70
2023-02-28T03:59:03.456Z,-1.70
2023-02-28T04:00:03.563Z,-1.70
2023-02-28T04:01:02.692Z,-1.70
2023-02-28T04:02:02.633Z,-1.70
2023-02-28T04:03:02.679Z,-1.70
2023-02-28T04:04:03.665Z,-1.70
2023-02-28T04:05:03.576Z,-1.70
2023-02-28T04:06:02.620Z,-1.70
2023-02-28T04:07:02.682Z,-1.70
2023-02-28T04:08:02.724Z,-1.70
2023-02-28T04:09:02.640Z,-1.70
2023-02-28T04:10:03.631Z,-1.70
2023-02-28T04:11:02.635Z,-1.70
2023-02-28T04:12:02.735Z,-1.70
2023-02-28T04:13:02.751Z,-1.70
2023-02-28T04:14:02.626Z,-1.70
2023-02-28T04:15:02.652Z,-1.70
2023-02-28T04:16:03.624Z,-1.70
2023-02-28T04:17:03.597Z,-1.70
2023-02-28T04:18:03.586Z,-1.70
2023-02-28T04:19:03.631Z,-1.70
2023-02-28T04:20:03.599Z,-1.80
2023-02-28T04:21:03.642Z,-1.70
2023-02-28T04:22:03.613Z,-1.80
2023-02-28T04:23:03.568Z,-1.70
2023-02-28T04:24:02.787Z,-1.80
2023-02-28T04:25:02.736Z,-1.80
2023-02-28T04:26:02.710Z,-1.80
2023-02-28T04:27:02.854Z,-1.80
2023-02-28T04:28:02.889Z,-1.80
2023-02-28T04:29:02.801Z,-1.80
2023-02-28T04:30:02.852Z,-1.80
2023-02-28T04:31:02.909Z,-1.80
2023-02-28T04:32:02.922Z,-1.80
2023-02-28T04:33:02.820Z,-1.80
2023-02-28T04:34:02.727Z,-1.80
2023-02-28T04:35:02.888Z,-1.80
2023-02-28T04:36:02.935Z,-1.80
2023-02-28T04:37:12.684Z,-1.80
2023-02-28T04:38:02.862Z,-1.80
2023-02-28T04:39:02.783Z,-1.80
2023-02-28T04:40:02.757Z,-1.80
2023-02-28T04:41:02.797Z,-1.80
2023-02-28T04:42:02.738Z,-1.80
2023-02-28T04:43:02.646Z,-1.80
2023-02-28T04:44:02.676Z,-1.80
2023-02-28T04:45:03.675Z,-1.90
2023-02-28T04:46:03.628Z,-1.90
2023-02-28T04:47:03.497Z,-1.90
2023-02-28T04:48:03.581Z,-1.90
2023-02-28T04:49:03.551Z,-1.90
2023-02-28T04:50:03.534Z,-1.90
2023-02-28T04:51:02.701Z,-1.90
2023-02-28T04:52:03.626Z,-1.90
2023-02-28T04:53:02.619Z,-1.90
2023-02-28T04:54:02.693Z,-1.90
2023-02-28T04:55:02.744Z,-1.90
2023-02-28T04:56:02.762Z,-1.90
2023-02-28T04:57:02.844Z,-1.90
2023-02-28T04:58:02.996Z,-1.90
2023-02-28T04:59:02.961Z,-1.90
2023-02-28T05:00:02.889Z,-1.90
2023-02-28T05:01:02.954Z,-1.90
2023-02-28T05:02:03.493Z,-1.90
2023-02-28T05:03:03.544Z,-2.00
2023-02-28T05:04:03.526Z,-2.00
2023-02-28T05:05:03.627Z,-2.00
2023-02-28T05:06:03.538Z,-2.00
2023-02-28T05:07:03.521Z,-2.00
2023-02-28T05:08:03.613Z,-2.00
2023-02-28T05:09:03.667Z,-2.00
2023-02-28T05:10:04.040Z,-2.00
2023-02-28T05:11:03.555Z,-2.00
2023-02-28T05:12:03.503Z,-2.00
2023-02-28T05:13:03.573Z,-2.00
2023-02-28T05:14:03.590Z,-2.00
2023-02-28T05:15:03.528Z,-2.00
2023-02-28T05:16:03.628Z,-2.00
2023-02-28T05:17:03.590Z,-2.00
2023-02-28T05:18:03.495Z,-2.00
2023-02-28T05:19:03.533Z,-2.00
2023-02-28T05:20:13.667Z,-2.00
2023-02-28T05:21:03.541Z,-2.00
2023-02-28T05:22:03.500Z,-2.00
2023-02-28T05:23:03.661Z,-2.00
2023-02-28T05:24:03.615Z,-2.00
2023-02-28T05:25:03.856Z,-2.00
2023-02-28T05:26:02.782Z,-2.00
2023-02-28T05:27:02.750Z,-2.00
2023-02-28T05:28:02.814Z,-2.00
2023-02-28T05:29:02.757Z,-2.00
2023-02-28T05:30:02.792Z,-2.00
2023-02-28T05:31:02.914Z,-2.10
2023-02-28T05:32:02.923Z,-2.00
2023-02-28T05:33:02.910Z,-2.10
2023-02-28T05:34:02.939Z,-2.00
2023-02-28T05:35:02.921Z,-2.10
2023-02-28T05:36:03.035Z,-2.00
2023-02-28T05:37:02.986Z,-2.10
2023-02-28T05:38:03.029Z,-2.10
2023-02-28T05:39:03.011Z,-2.10
2023-02-28T05:40:03.028Z,-2.10
2023-02-28T05:41:02.903Z,-2.10
2023-02-28T05:42:03.092Z,-2.10
2023-02-28T05:43:02.960Z,-2.10
2023-02-28T05:44:02.978Z,-2.10
2023-02-28T05:45:03.057Z,-2.10
2023-02-28T05:46:02.984Z,-2.10
2023-02-28T05:47:02.883Z,-2.10
2023-02-28T05:48:02.878Z,-2.10
2023-02-28T05:49:03.006Z,-2.10
2023-02-28T05:50:02.961Z,-2.10
2023-02-28T05:51:03.042Z,-2.10
2023-02-28T05:52:02.954Z,-2.10
2023-02-28T05:53:02.888Z,-2.10
2023-02-28T05:54:02.913Z,-2.10
2023-02-28T05:55:02.767Z,-2.10
2023-02-28T05:56:02.704Z,-2.10
2023-02-28T05:57:04.744Z,-2.10
2023-02-28T05:58:02.752Z,-2.10
2023-02-28T05:59:03.379Z,-2.10
2023-02-28T06:00:03.396Z,-2.10
2023-02-28T06:01:03.399Z,-2.10
2023-02-28T06:02:03.482Z,-2.10
2023-02-28T06:03:03.571Z,-2.10
2023-02-28T06:04:03.586Z,-2.10
2023-02-28T06:05:03.537Z,-2.10
2023-02-28T06:06:03.503Z,-2.10
2023-02-28T06:07:03.485Z,-2.10
2023-02-28T06:08:03.452Z,-2.10
2023-02-28T06:09:03.497Z,-2.10
2023-02-28T06:10:03.490Z,-2.10
2023-02-28T06:11:03.543Z,-2.10
2023-02-28T06:12:03.537Z,-2.10
2023-02-28T06:13:03.578Z,-2.10
2023-02-28T06:14:03.687Z,-2.10
2023-02-28T06:15:03.586Z,-2.10
2023-02-28T06:16:03.567Z,-2.10
2023-02-28T06:17:03.535Z,-2.00
2023-02-28T06:18:03.546Z,-2.00
2023-02-28T06:19:03.519Z,-2.00
2023-02-28T06:20:03.398Z,-2.00
2023-02-28T06:21:03.378Z,-2.00
2023-02-28T06:22:03.508Z,-2.00
2023-02-28T06:23:03.429Z,-2.00
2023-02-28T06:24:03.490Z,-2.00
2023-02-28T06:25:03.544Z,-2.00
2023-02-28T06:26:03.525Z,-2.00
2023-02-28T06:27:03.506Z,-2.00
2023-02-28T06:28:03.527Z,-2.00
2023-02-28T06:29:03.560Z,-2.00
2023-02-28T06:30:03.535Z,-2.00
2023-02-28T06:31:03.484Z,-2.00
2023-02-28T06:32:03.482Z,-2.00
2023-02-28T06:33:03.518Z,-2.00
2023-02-28T06:34:03.370Z,-2.00
2023-02-28T06:35:03.511Z,-2.00
2023-02-28T06:36:03.506Z,-2.00
2023-02-28T06:37:03.538Z,-1.90
2023-02-28T06:38:03.479Z,-1.90
2023-02-28T06:39:03.545Z,-1.90
2023-02-28T06:40:03.667Z,-1.90
2023-02-28T06:41:03.565Z,-1.90
2023-02-28T06:42:03.566Z,-1.90
2023-02-28T06:43:03.572Z,-1.90
2023-02-28T06:44:03.484Z,-1.90
2023-02-28T06:45:03.492Z,-1.90
2023-02-28T06:46:03.603Z,-1.90
2023-02-28T06:47:03.589Z,-1.90
2023-02-28T06:48:03.464Z,-1.90
2023-02-28T06:49:03.577Z,-1.90
2023-02-28T06:50:03.622Z,-1.80
2023-02-28T06:51:03.552Z,-1.80
2023-02-28T06:52:03.609Z,-1.80
2023-02-28T06:53:03.581Z,-1.80
2023-02-28T06:54:03.680Z,-1.80
2023-02-28T06:55:03.600Z,-1.80
2023-02-28T06:56:03.535Z,-1.80
2023-02-28T06:57:03.493Z,-1.80
2023-02-28T06:58:03.424Z,-1.80
2023-02-28T06:59:03.701Z,-1.80
2023-02-28T07:00:03.532Z,-1.70
2023-02-28T07:01:03.539Z,-1.70
2023-02-28T07:02:03.553Z,-1.70
2023-02-28T07:03:03.500Z,-1.70
2023-02-28T07:04:03.484Z,-1.70
2023-02-28T07:05:03.593Z,-1.70
2023-02-28T07:06:03.477Z,-1.70
2023-02-28T07:07:03.484Z,-1.70
2023-02-28T07:08:03.551Z,-1.70
2023-02-28T07:09:04.084Z,-1.70
2023-02-28T07:10:03.575Z,-1.70
2023-02-28T07:11:03.588Z,-1.60
2023-02-28T07:12:03.623Z,-1.60
2023-02-28T07:13:03.515Z,-1.60
2023-02-28T07:14:03.555Z,-1.60
2023-02-28T07:15:02.591Z,-1.60
2023-02-28T07:16:02.849Z,-1.60
2023-02-28T07:17:02.754Z,-1.60
2023-02-28T07:18:02.769Z,-1.60
2023-02-28T07:19:02.774Z,-1.60
2023-02-28T07:20:02.708Z,-1.60
2023-02-28T07:21:02.622Z,-1.60
2023-02-28T07:22:02.664Z,-1.60
2023-02-28T07:23:03.664Z,-1.50
2023-02-28T07:24:02.651Z,-1.50
2023-02-28T07:25:03.641Z,-1.50
2023-02-28T07:26:03.570Z,-1.50
2023-02-28T07:27:03.448Z,-1.50
2023-02-28T07:28:03.367Z,-1.50
2023-02-28T07:29:03.676Z,-1.50
2023-02-28T07:30:03.616Z,-1.50
2023-02-28T07:31:03.657Z,-1.40
2023-02-28T07:32:03.620Z,-1.40
2023-02-28T07:33:03.532Z,-1.40
2023-02-28T07:34:03.588Z,-1.40
2023-02-28T07:35:03.532Z,-1.40
2023-02-28T07:36:03.703Z,-1.30
2023-02-28T07:37:03.427Z,-1.30
2023-02-28T07:38:03.513Z,-1.30
2023-02-28T07:39:03.671Z,-1.30
2023-02-28T07:40:03.636Z,-1.30
2023-02-28T07:41:03.521Z,-1.20
2023-02-28T07:42:03.361Z,-1.20
2023-02-28T07:43:03.387Z,-1.20
2023-02-28T07:44:03.375Z,-1.20
2023-02-28T07:45:03.452Z,-1.10
2023-02-28T07:46:03.463Z,-1.10
2023-02-28T07:47:03.412Z,-1.00
2023-02-28T07:48:03.330Z,-1.00
2023-02-28T07:49:03.262Z,-0.90
2023-02-28T07:50:03.314Z,-0.80
2023-02-28T07:51:03.431Z,-0.80
2023-02-28T07:52:03.350Z,-0.80
2023-02-28T07:53:03.494Z,-0.80
2023-02-28T07:54:03.584Z,-0.70
2023-02-28T07:55:03.557Z,-0.70
2023-02-28T07:56:03.669Z,-0.70
2023-02-28T07:57:03.613Z,-0.70
2023-02-28T07:58:03.550Z,-0.70
2023-02-28T07:59:03.461Z,-0.70
2023-02-28T08:00:03.519Z,-0.70
2023-02-28T08:01:03.495Z,-0.60
2023-02-28T08:02:03.502Z,-0.60
2023-02-28T08:03:03.516Z,-0.50
2023-02-28T08:04:03.656Z,-0.50
2023-02-28T08:05:02.765Z,-0.40
2023-02-28T08:06:03.621Z,-0.30
2023-02-28T08:07:03.611Z,-0.30
2023-02-28T08:08:03.570Z,-0.20
2023-02-28T08:09:02.694Z,-0.20
2023-02-28T08:10:02.653Z,-0.10
2023-02-28T08:11:02.747Z,-0.10
2023-02-28T08:12:02.917Z,0.00
2023-02-28T08:13:02.981Z,0.00
2023-02-28T08:14:03.067Z,0.00
2023-02-28T08:15:02.986Z,0.10
2023-02-28T08:16:02.984Z,0.10
2023-02-28T08:17:02.903Z,0.10
2023-02-28T08:18:02.938Z,0.20
2023-02-28T08:19:02.869Z,0.20
2023-02-28T08:20:02.903Z,0.20
2023-02-28T08:21:03.034Z,0.20
2023-02-28T08:22:02.974Z,0.20
2023-02-28T08:23:02.909Z,0.30
2023-02-28T08:24:03.046Z,0.30
2023-02-28T08:25:03.013Z,0.30
2023-02-28T08:26:03.029Z,0.30
2023-02-28T08:27:02.972Z,0.40
2023-02-28T08:28:02.965Z,0.40
2023-02-28T08:29:02.973Z,0.40
2023-02-28T08:30:02.961Z,0.40
2023-02-28T08:31:03.054Z,0.40
2023-02-28T08:32:03.061Z,0.40
2023-02-28T08:33:03.170Z,0.40
2023-02-28T08:34:03.216Z,0.40
2023-02-28T08:35:03.361Z,0.40
2023-02-28T08:36:03.558Z,0.40
2023-02-28T08:37:03.333Z,0.40
2023-02-28T08:38:03.537Z,0.50
2023-02-28T08:39:03.551Z,0.50
2023-02-28T08:40:03.382Z,0.50
2023-02-28T08:41:03.382Z,0.50
2023-02-28T08:42:07.420Z,0.50
2023-02-28T08:43:03.454Z,0.50
2023-02-28T08:44:03.579Z,0.50
2023-02-28T08:45:03.610Z,0.60
2023-02-28T08:46:03.677Z,0.60
2023-02-28T08:47:03.576Z,0.60
2023-02-28T08:48:03.608Z,0.60
2023-02-28T08:49:02.694Z,0.60
2023-02-28T08:50:02.719Z,0.60
2023-02-28T08:51:07.476Z,0.60
2023-02-28T08:52:02.777Z,0.60
2023-02-28T08:53:02.901Z,0.60
2023-02-28T08:54:02.948Z,0.70
2023-02-28T08:55:02.904Z,0.70
2023-02-28T08:56:02.926Z,0.70
2023-02-28T08:57:02.940Z,0.70
2023-02-28T08:58:02.861Z,0.70
2023-02-28T08:59:02.957Z,0.70
2023-02-28T09:00:02.796Z,0.80
2023-02-28T09:01:02.835Z,0.80
2023-02-28T09:02:02.830Z,0.80
2023-02-28T09:03:02.895Z,0.80
2023-02-28T09:04:02.801Z,0.80
2023-02-28T09:05:02.857Z,0.80
2023-02-28T09:06:02.863Z,0.80
2023-02-28T09:07:02.848Z,0.80
2023-02-28T09:08:02.946Z,0.80
2023-02-28T09:09:03.087Z,0.80
2023-02-28T09:10:03.178Z,0.80
2023-02-28T09:11:03.417Z,0.80
2023-02-28T09:12:03.125Z,0.90
2023-02-28T09:13:03.124Z,0.80
2023-02-28T09:14:03.120Z,0.90
2023-02-28T09:15:03.021Z,0.90
2023-02-28T09:16:03.020Z,0.90
2023-02-28T09:18:03.039Z,1.00
2023-02-28T09:19:03.106Z,1.00
2023-02-28T09:20:03.279Z,1.00
2023-02-28T09:21:03.193Z,1.00
2023-02-28T09:22:03.071Z,1.00
2023-02-28T09:23:03.226Z,1.10
2023-02-28T09:24:03.194Z,1.10
2023-02-28T09:25:03.173Z,1.10
2023-02-28T09:26:03.068Z,1.10
2023-02-28T09:27:05.173Z,1.10
2023-02-28T09:28:03.274Z,1.10
2023-02-28T09:29:03.272Z,1.10
2023-02-28T09:30:03.194Z,1.10
2023-02-28T09:31:03.350Z,1.10
2023-02-28T09:32:03.313Z,1.20
2023-02-28T09:33:03.340Z,1.20
2023-02-28T09:34:03.439Z,1.20
2023-02-28T09:35:03.398Z,1.20
2023-02-28T09:36:03.437Z,1.20
2023-02-28T09:37:03.481Z,1.20
2023-02-28T09:38:03.466Z,1.20
2023-02-28T09:39:03.515Z,1.20
2023-02-28T09:40:03.521Z,1.20
2023-02-28T09:41:03.562Z,1.30
2023-02-28T09:42:02.664Z,1.30
2023-02-28T09:43:03.607Z,1.30
2023-02-28T09:44:02.714Z,1.30
2023-02-28T09:45:02.626Z,1.30
2023-02-28T09:46:02.705Z,1.30
2023-02-28T09:47:02.655Z,1.30
2023-02-28T09:48:02.808Z,1.30
2023-02-28T09:49:02.762Z,1.30
2023-02-28T09:50:02.711Z,1.30
2023-02-28T09:51:02.690Z,1.40
2023-02-28T09:52:02.817Z,1.40
2023-02-28T09:53:02.844Z,1.40
2023-02-28T09:54:02.745Z,1.40
2023-02-28T09:55:02.693Z,1.50
2023-02-28T09:56:02.736Z,1.50
2023-02-28T09:57:02.724Z,1.50
2023-02-28T09:58:02.752Z,1.50
2023-02-28T09:59:02.717Z,1.50
2023-02-28T10:00:02.685Z,1.50
2023-02-28T10:01:02.739Z,1.50
2023-02-28T10:02:02.801Z,1.50
2023-02-28T10:03:03.584Z,1.50
2023-02-28T10:04:02.625Z,1.60
2023-02-28T10:05:02.826Z,1.60
2023-02-28T10:06:02.734Z,1.60
2023-02-28T10:07:02.755Z,1.70
2023-02-28T10:08:02.751Z,1.70
2023-02-28T10:09:02.775Z,1.70
2023-02-28T10:10:02.815Z,1.80
2023-02-28T10:11:02.850Z,1.80
2023-02-28T10:12:02.870Z,1.80
2023-02-28T10:13:02.744Z,1.90
2023-02-28T10:14:02.794Z,1.90
2023-02-28T10:15:02.702Z,1.90
2023-02-28T10:16:02.819Z,1.90
2023-02-28T10:17:02.784Z,1.90
2023-02-28T10:18:08.709Z,2.00
2023-02-28T10:19:02.797Z,2.00
2023-02-28T10:20:02.877Z,2.00
2023-02-28T10:21:02.874Z,2.00
2023-02-28T10:22:02.832Z,2.10
2023-02-28T10:23:02.957Z,2.10
2023-02-28T10:24:02.840Z,2.10
2023-02-28T10:25:03.197Z,2.10
2023-02-28T10:26:02.915Z,2.10
2023-02-28T10:27:02.915Z,2.00
2023-02-28T10:28:03.048Z,2.00
2023-02-28T10:29:02.965Z,1.90
2023-02-28T10:30:03.061Z,1.90
2023-02-28T10:31:03.169Z,1.80
2023-02-28T10:32:03.189Z,1.70
2023-02-28T10:33:03.362Z,1.70
2023-02-28T10:34:03.237Z,1.70
2023-02-28T10:35:03.389Z,1.60
2023-02-28T10:36:03.453Z,1.60
2023-02-28T10:37:03.442Z,1.60
2023-02-28T10:38:03.526Z,1.60
2023-02-28T10:39:03.492Z,1.60
2023-02-28T10:40:03.443Z,1.60
2023-02-28T10:41:03.482Z,1.60
2023-02-28T10:42:03.588Z,1.60
2023-02-28T10:43:03.556Z,1.60
2023-02-28T10:44:03.650Z,1.70
2023-02-28T10:45:03.586Z,1.70
2023-02-28T10:46:03.497Z,1.80
2023-02-28T10:47:03.446Z,1.80
2023-02-28T10:48:03.558Z,1.80
2023-02-28T10:49:03.534Z,1.90
2023-02-28T10:50:03.337Z,1.90
2023-02-28T10:51:03.352Z,2.00
2023-02-28T10:52:03.423Z,2.00
2023-02-28T10:53:04.437Z,2.10
2023-02-28T10:54:03.546Z,2.10
2023-02-28T10:55:03.612Z,2.10
2023-02-28T10:56:03.543Z,2.10
2023-02-28T10:57:03.583Z,2.20
2023-02-28T10:58:03.542Z,2.20
2023-02-28T10:59:03.563Z,2.20
2023-02-28T11:00:03.633Z,2.20
2023-02-28T11:01:03.501Z,2.30
2023-02-28T11:02:03.661Z,2.30
2023-02-28T11:03:03.409Z,2.30
2023-02-28T11:04:03.496Z,2.30
2023-02-28T11:05:03.425Z,2.30
2023-02-28T11:06:03.481Z,2.30
2023-02-28T11:07:03.438Z,2.30
2023-02-28T11:08:03.459Z,2.30
2023-02-28T11:09:03.409Z,2.40
2023-02-28T11:10:03.378Z,2.40
2023-02-28T11:11:03.312Z,2.40
2023-02-28T11:12:03.366Z,2.40
2023-02-28T11:13:03.331Z,2.40
2023-02-28T11:14:03.292Z,2.40
2023-02-28T11:15:03.383Z,2.40
2023-02-28T11:16:03.443Z,2.40
2023-02-28T11:17:03.442Z,2.30
2023-02-28T11:18:03.452Z,2.30
2023-02-28T11:19:03.468Z,2.30
2023-02-28T11:20:03.374Z,2.30
2023-02-28T11:21:03.271Z,2.30
2023-02-28T11:22:03.399Z,2.30
2023-02-28T11:23:03.359Z,2.30
2023-02-28T11:24:03.303Z,2.40
2023-02-28T11:25:03.346Z,2.30
2023-02-28T11:26:03.306Z,2.30
2023-02-28T11:27:03.269Z,2.30
2023-02-28T11:28:03.359Z,2.30
2023-02-28T11:29:03.306Z,2.30
2023-02-28T11:30:03.362Z,2.30
2023-02-28T11:31:03.521Z,2.30
2023-02-28T11:32:03.535Z,2.30
2023-02-28T11:33:03.482Z,2.30
2023-02-28T11:34:03.547Z,2.30
2023-02-28T11:35:03.517Z,2.40
2023-02-28T11:36:03.635Z,2.40
2023-02-28T11:37:02.619Z,2.40
2023-02-28T11:38:02.725Z,2.40
2023-02-28T11:39:02.770Z,2.40
2023-02-28T11:40:02.949Z,2.40
2023-02-28T11:41:03.001Z,2.40
2023-02-28T11:42:03.037Z,2.40
2023-02-28T11:43:03.043Z,2.40
2023-02-28T11:44:03.104Z,2.50
2023-02-28T11:45:03.076Z,2.50
2023-02-28T11:46:03.078Z,2.50
2023-02-28T11:47:03.135Z,2.50
2023-02-28T11:48:03.211Z,2.50
2023-02-28T11:49:03.195Z,2.40
2023-02-28T11:50:03.188Z,2.40
2023-02-28T11:51:03.114Z,2.40
2023-02-28T11:52:03.123Z,2.40
2023-02-28T11:53:03.185Z,2.40
2023-02-28T11:54:03.180Z,2.40
2023-02-28T11:55:03.072Z,2.40
2023-02-28T11:56:02.974Z,2.40
2023-02-28T11:57:03.038Z,2.40
2023-02-28T11:58:02.881Z,2.50
2023-02-28T11:59:02.857Z,2.50
2023-02-28T12:00:02.794Z,2.50
2023-02-28T12:01:02.887Z,2.50
2023-02-28T12:02:02.861Z,2.50
2023-02-28T12:03:02.891Z,2.50
2023-02-28T12:04:02.708Z,2.50
2023-02-28T12:05:02.660Z,2.50
2023-02-28T12:06:02.734Z,2.50
2023-02-28T12:07:02.652Z,2.50
2023-02-28T12:08:02.699Z,2.50
2023-02-28T12:09:02.670Z,2.50
2023-02-28T12:10:03.584Z,2.50
2023-02-28T12:11:03.514Z,2.50
2023-02-28T12:12:03.519Z,2.60
2023-02-28T12:13:03.391Z,2.60
2023-02-28T12:14:03.327Z,2.50
2023-02-28T12:15:03.262Z,2.50
2023-02-28T12:16:03.269Z,2.60
2023-02-28T12:17:03.219Z,2.50
2023-02-28T12:18:03.078Z,2.60
2023-02-28T12:19:03.032Z,2.60
2023-02-28T12:20:03.138Z,2.60
2023-02-28T12:21:03.171Z,2.60
2023-02-28T12:22:02.962Z,2.60
2023-02-28T12:23:02.958Z,2.60
2023-02-28T12:24:03.059Z,2.60
2023-02-28T12:25:02.953Z,2.60
2023-02-28T12:26:02.968Z,2.60
2023-02-28T12:27:02.880Z,2.70
2023-02-28T12:28:02.872Z,2.70
2023-02-28T12:29:02.731Z,2.70
2023-02-28T12:30:02.852Z,2.70
2023-02-28T12:31:02.734Z,2.70
2023-02-28T12:32:02.903Z,2.70
2023-02-28T12:33:03.555Z,2.70
2023-02-28T12:34:03.635Z,2.80
2023-02-28T12:35:02.670Z,2.80
2023-02-28T12:36:03.647Z,2.80
2023-02-28T12:37:03.479Z,2.80
2023-02-28T12:38:03.540Z,2.80
2023-02-28T12:39:03.505Z,2.80
2023-02-28T12:40:03.449Z,2.90
2023-02-28T12:41:03.381Z,2.90
2023-02-28T12:42:03.381Z,2.90
2023-02-28T12:43:03.443Z,2.90
2023-02-28T12:44:03.400Z,2.90
2023-02-28T12:45:03.309Z,2.90
2023-02-28T12:46:03.300Z,2.90
2023-02-28T12:47:03.213Z,2.90
2023-02-28T12:48:03.378Z,2.90
2023-02-28T12:49:03.328Z,2.80
2023-02-28T12:50:03.350Z,2.80
2023-02-28T12:51:03.586Z,2.80
2023-02-28T12:52:03.408Z,2.80
2023-02-28T12:53:03.421Z,2.80
2023-02-28T12:54:03.346Z,2.80
2023-02-28T12:55:03.323Z,2.80
2023-02-28T12:56:03.462Z,2.80
2023-02-28T12:57:03.513Z,2.90
2023-02-28T12:58:03.473Z,2.90
2023-02-28T12:59:03.521Z,2.90
2023-02-28T13:00:03.339Z,2.90
2023-02-28T13:01:03.402Z,2.90
2023-02-28T13:02:03.274Z,2.90
2023-02-28T13:03:03.095Z,2.90